LFSB/MLH METAR and TAF weather

Enter ICAO airport designator
Station Type Date Time Source
LFSB METAR 2021/03/07 09:00 UTC NOAA

LFSB 070900Z 13006KT 9999 BKN033 05/M01 Q1023 NOSIG


Station Type Date Time Source
LFSB Decoded METAR 2021/03/07 09:00 UTC NOAA

Bale-Mulhouse, France (LFSB) 47-36N 007-31E 271M
Mar 07, 2021 - 04:00 AM EST / 2021.03.07 0900 UTC
Wind: from the SE (130 degrees) at 7 MPH (6 KT):0
Visibility: greater than 7 mile(s):0
Sky conditions: mostly cloudy
Temperature: 41 F (5 C)
Dew Point: 30 F (-1 C)
Relative Humidity: 65%
Pressure (altimeter): 30.21 in. Hg (1023 hPa)
ob: LFSB 070900Z 13006KT 9999 BKN033 05/M01 Q1023 NOSIG
cycle: 9

Station Type Date Time Source
LFSB TAF 2021/03/07 06:21 UTC NOAA

TAF LFSB 070500Z 0706/0806 14004KT 9999 SCT035 BKN050 PROB40
TEMPO 0713/0721 -SHRA SCT030TCU
BECMG 0716/0718 34006KT

Example: see airport list